createdAt,value
2022-10-13T00:04:12.991Z,7.00
2022-10-13T00:09:21.099Z,7.20
2022-10-13T00:11:57.823Z,7.57
2022-10-13T00:14:30.869Z,7.80
2022-10-13T00:17:04.021Z,7.20
2022-10-13T00:19:39.284Z,8.30
2022-10-13T00:22:12.339Z,7.45
2022-10-13T00:27:24.216Z,8.10
2022-10-13T00:29:56.993Z,7.82
2022-10-13T00:32:30.681Z,9.20
2022-10-13T00:35:03.778Z,8.35
2022-10-13T00:40:12.020Z,8.70
2022-10-13T00:42:44.745Z,8.60
2022-10-13T00:45:24.198Z,7.88
2022-10-13T00:47:59.787Z,8.80
2022-10-13T00:50:40.442Z,7.75
2022-10-13T00:53:13.410Z,8.77
2022-10-13T00:58:26.066Z,8.10
2022-10-13T01:01:00.156Z,8.57
2022-10-13T01:03:33.083Z,8.00
2022-10-13T01:06:08.138Z,8.23
2022-10-13T01:08:41.167Z,8.63
2022-10-13T01:14:16.231Z,9.52
2022-10-13T01:16:58.678Z,8.57
2022-10-13T01:19:58.381Z,8.70
2022-10-13T01:22:46.268Z,8.40
2022-10-13T01:25:36.178Z,8.50
2022-10-13T01:28:33.997Z,10.20
2022-10-13T01:31:17.196Z,9.75
2022-10-13T01:33:59.144Z,8.40
2022-10-13T01:36:46.932Z,9.30
2022-10-13T01:39:26.102Z,9.60
2022-10-13T01:42:11.287Z,8.73
2022-10-13T01:44:50.402Z,9.32
2022-10-13T01:47:26.925Z,8.30
2022-10-13T01:50:01.063Z,9.52
2022-10-13T01:52:38.218Z,8.40
2022-10-13T01:55:13.316Z,8.55
2022-10-13T01:57:46.406Z,8.63
2022-10-13T02:03:07.443Z,8.98
2022-10-13T02:05:49.601Z,8.52
2022-10-13T02:08:30.578Z,9.75
2022-10-13T02:11:11.990Z,8.30
2022-10-13T02:13:49.663Z,9.20
2022-10-13T02:16:32.533Z,7.90
2022-10-13T02:19:09.317Z,9.32
2022-10-13T02:21:42.791Z,9.43
2022-10-13T02:24:15.958Z,9.85
2022-10-13T02:26:49.207Z,8.85
2022-10-13T02:29:25.976Z,8.43
2022-10-13T02:31:58.794Z,10.05
2022-10-13T02:34:32.900Z,8.23
2022-10-13T02:37:05.850Z,9.13
2022-10-13T02:39:38.632Z,8.70
2022-10-13T02:42:11.761Z,8.57
2022-10-13T02:47:17.267Z,9.55
2022-10-13T02:49:51.547Z,8.90
2022-10-13T02:52:24.427Z,8.63
2022-10-13T02:54:57.313Z,8.68
2022-10-13T02:57:30.117Z,7.75
2022-10-13T03:00:07.200Z,8.73
2022-10-13T03:02:40.198Z,8.88
2022-10-13T03:05:14.263Z,8.52
2022-10-13T03:07:47.045Z,8.27
2022-10-13T03:10:20.185Z,8.93
2022-10-13T03:12:56.236Z,7.82
2022-10-13T03:15:31.921Z,8.70
2022-10-13T03:18:05.406Z,9.35
2022-10-13T03:20:39.610Z,9.18
2022-10-13T03:23:12.641Z,7.45
2022-10-13T03:25:47.622Z,8.55
2022-10-13T03:28:20.577Z,8.35
2022-10-13T03:31:02.187Z,8.82
2022-10-13T03:33:35.347Z,9.07
2022-10-13T03:38:44.088Z,9.48
2022-10-13T03:41:19.007Z,8.20
2022-10-13T03:43:56.418Z,7.88
2022-10-13T03:46:31.735Z,8.27
2022-10-13T03:49:04.604Z,8.73
2022-10-13T03:51:39.338Z,9.13
2022-10-13T03:54:13.010Z,7.88
2022-10-13T03:56:45.777Z,8.55
2022-10-13T03:59:18.722Z,7.43
2022-10-13T04:01:51.555Z,7.45
2022-10-13T04:04:24.322Z,8.32
2022-10-13T04:07:03.313Z,8.45
2022-10-13T04:09:36.352Z,8.77
2022-10-13T04:14:42.371Z,8.35
2022-10-13T04:17:15.417Z,8.40
2022-10-13T04:22:22.703Z,8.90
2022-10-13T04:24:56.204Z,8.95
2022-10-13T04:27:30.756Z,8.48
2022-10-13T04:30:03.920Z,7.60
2022-10-13T04:35:09.602Z,8.15
2022-10-13T04:37:45.290Z,9.25
2022-10-13T04:40:18.213Z,8.10
2022-10-13T04:42:51.451Z,8.30
2022-10-13T04:45:24.603Z,9.10
2022-10-13T04:50:30.382Z,8.23
2022-10-13T04:53:07.880Z,8.30
2022-10-13T04:55:40.705Z,8.73
2022-10-13T04:58:13.491Z,9.13
2022-10-13T05:00:47.341Z,8.10
2022-10-13T05:03:20.107Z,8.40
2022-10-13T05:05:53.623Z,8.77
2022-10-13T05:08:28.395Z,8.25
2022-10-13T05:11:03.359Z,8.18
2022-10-13T05:13:37.266Z,8.45
2022-10-13T05:16:11.222Z,8.35
2022-10-13T05:18:44.642Z,7.97
2022-10-13T05:21:20.273Z,7.72
2022-10-13T05:23:56.026Z,7.05
2022-10-13T05:26:32.133Z,7.65
2022-10-13T05:29:04.913Z,7.70
2022-10-13T05:31:38.420Z,8.70
2022-10-13T05:34:11.324Z,7.88
2022-10-13T05:36:44.093Z,7.82
2022-10-13T05:39:18.487Z,7.35
2022-10-13T05:41:51.327Z,9.02
2022-10-13T05:44:27.472Z,7.18
2022-10-13T05:47:06.527Z,7.18
2022-10-13T05:49:41.055Z,6.72
2022-10-13T05:52:14.226Z,7.78
2022-10-13T05:57:25.460Z,7.00
2022-10-13T06:00:03.230Z,7.57
2022-10-13T06:02:50.808Z,7.63
2022-10-13T06:05:27.622Z,6.80
2022-10-13T06:08:02.153Z,7.20
2022-10-13T06:13:10.850Z,9.32
2022-10-13T06:15:43.643Z,8.88
2022-10-13T06:18:16.910Z,8.18
2022-10-13T06:20:49.700Z,8.52
2022-10-13T06:23:23.202Z,7.35
2022-10-13T06:25:57.352Z,9.10
2022-10-13T06:28:30.256Z,10.90
2022-10-13T06:33:37.387Z,11.70
2022-10-13T06:36:10.822Z,11.68
2022-10-13T06:38:43.637Z,12.98
2022-10-13T06:41:17.685Z,13.32
2022-10-13T06:43:50.394Z,11.13
2022-10-13T06:46:23.189Z,12.02
2022-10-13T06:48:56.005Z,11.93
2022-10-13T06:51:30.247Z,11.63
2022-10-13T06:54:03.053Z,10.95
2022-10-13T06:56:38.132Z,12.80
2022-10-13T06:59:16.139Z,12.85
2022-10-13T07:01:52.133Z,11.20
2022-10-13T07:04:28.197Z,11.40
2022-10-13T07:07:04.134Z,10.75
2022-10-13T07:09:37.021Z,11.77
2022-10-13T07:12:14.212Z,11.77
2022-10-13T07:14:46.947Z,10.73
2022-10-13T07:17:20.089Z,11.07
2022-10-13T07:19:57.150Z,11.02
2022-10-13T07:22:31.226Z,10.23
2022-10-13T07:27:40.681Z,10.38
2022-10-13T07:30:14.596Z,9.70
2022-10-13T07:32:47.733Z,9.90
2022-10-13T07:35:23.186Z,10.80
2022-10-13T07:37:57.658Z,8.93
2022-10-13T07:40:30.386Z,8.55
2022-10-13T07:43:04.775Z,8.63
2022-10-13T07:45:37.460Z,9.52
2022-10-13T07:48:10.174Z,8.57
2022-10-13T07:50:43.310Z,7.47
2022-10-13T07:55:48.749Z,7.93
2022-10-13T07:58:22.842Z,6.90
2022-10-13T08:00:59.538Z,7.45
2022-10-13T08:03:32.767Z,6.75
2022-10-13T08:06:07.330Z,7.15
2022-10-13T08:08:40.793Z,7.68
2022-10-13T08:11:17.569Z,7.68
2022-10-13T08:13:52.895Z,7.22
2022-10-13T08:16:29.260Z,6.95
2022-10-13T08:19:02.293Z,6.95
2022-10-13T08:24:28.417Z,6.07
2022-10-13T08:27:01.184Z,5.75
2022-10-13T08:29:35.373Z,6.45
2022-10-13T08:32:08.305Z,5.95
2022-10-13T08:34:41.255Z,6.30
2022-10-13T08:37:14.868Z,5.78
2022-10-13T08:39:47.495Z,5.60
2022-10-13T08:42:22.811Z,5.72
2022-10-13T08:45:39.629Z,6.47
2022-10-13T08:47:57.981Z,6.65
2022-10-13T08:50:35.699Z,7.28
2022-10-13T08:53:14.388Z,8.85
2022-10-13T08:58:28.905Z,9.85
2022-10-13T09:01:15.732Z,9.57
2022-10-13T09:03:53.245Z,9.85
2022-10-13T09:06:28.888Z,12.05
2022-10-13T09:09:04.902Z,10.70
2022-10-13T09:11:40.945Z,10.85
2022-10-13T09:14:22.194Z,12.45
2022-10-13T09:16:57.744Z,11.15
2022-10-13T09:19:34.082Z,11.05
2022-10-13T09:22:16.238Z,10.57
2022-10-13T09:24:49.161Z,10.10
2022-10-13T09:27:22.050Z,10.00
2022-10-13T09:32:29.554Z,10.02
2022-10-13T09:35:21.532Z,9.20
2022-10-13T09:38:04.043Z,10.85
2022-10-13T09:40:40.759Z,10.82
2022-10-13T09:43:30.749Z,10.70
2022-10-13T09:46:12.158Z,12.52
2022-10-13T09:48:49.985Z,12.00
2022-10-13T09:51:34.798Z,11.90
2022-10-13T09:54:29.383Z,13.07
2022-10-13T09:57:10.182Z,11.00
2022-10-13T09:59:51.087Z,10.57
2022-10-13T10:02:31.691Z,10.43
2022-10-13T10:05:18.089Z,10.85
2022-10-13T10:07:57.679Z,9.38
2022-10-13T10:10:35.198Z,11.40
2022-10-13T10:13:12.410Z,9.30
2022-10-13T10:16:06.970Z,9.00
2022-10-13T10:18:44.644Z,9.85
2022-10-13T10:21:30.646Z,8.80
2022-10-13T10:24:14.369Z,8.73
2022-10-13T10:26:56.143Z,7.95
2022-10-13T10:29:42.207Z,8.13
2022-10-13T10:32:28.914Z,7.63
2022-10-13T10:35:13.677Z,7.80
2022-10-13T10:38:01.160Z,7.35
2022-10-13T10:40:52.329Z,8.52
2022-10-13T10:43:41.650Z,7.20
2022-10-13T10:46:21.520Z,8.13
2022-10-13T10:48:59.774Z,7.10
2022-10-13T10:51:37.142Z,6.85
2022-10-13T10:54:23.317Z,7.13
2022-10-13T10:57:00.325Z,7.38
2022-10-13T10:59:50.998Z,7.28
2022-10-13T11:02:43.701Z,6.90
2022-10-13T11:05:17.663Z,8.27
2022-10-13T11:07:58.871Z,8.07
2022-10-13T11:10:33.043Z,7.80
2022-10-13T11:13:26.675Z,8.43
2022-10-13T11:18:56.917Z,9.23
2022-10-13T11:22:11.685Z,8.98
2022-10-13T11:24:56.538Z,8.43
2022-10-13T11:27:41.718Z,10.00
2022-10-13T11:30:43.475Z,10.65
2022-10-13T11:33:52.548Z,9.45
2022-10-13T11:36:52.647Z,10.15
2022-10-13T11:40:00.534Z,11.25
2022-10-13T11:42:59.868Z,10.25
2022-10-13T11:45:58.143Z,11.25
2022-10-13T11:48:54.466Z,11.98
2022-10-13T11:51:33.573Z,11.65
2022-10-13T11:54:20.576Z,10.88
2022-10-13T11:56:54.854Z,11.15
2022-10-13T11:59:31.231Z,11.35
2022-10-13T12:02:13.535Z,10.57
2022-10-13T12:07:36.107Z,9.13
2022-10-13T12:10:17.617Z,10.35
2022-10-13T12:12:51.322Z,11.30
2022-10-13T12:15:32.256Z,10.20
2022-10-13T12:18:21.583Z,10.10
2022-10-13T12:20:55.884Z,9.50
2022-10-13T12:23:29.529Z,10.85
2022-10-13T12:26:02.955Z,10.02
2022-10-13T12:28:50.021Z,8.68
2022-10-13T12:31:25.719Z,11.00
2022-10-13T12:34:00.434Z,8.55
2022-10-13T12:36:35.081Z,8.95
2022-10-13T12:39:14.527Z,8.00
2022-10-13T12:41:49.867Z,8.35
2022-10-13T12:44:25.933Z,8.98
2022-10-13T12:47:03.834Z,8.90
2022-10-13T12:49:38.076Z,7.43
2022-10-13T12:52:15.470Z,8.00
2022-10-13T12:54:50.554Z,8.02
2022-10-13T12:57:36.125Z,8.80
2022-10-13T13:00:23.791Z,7.70
2022-10-13T13:02:59.690Z,7.32
2022-10-13T13:05:34.137Z,5.35
2022-10-13T13:08:25.015Z,5.80
2022-10-13T13:10:58.576Z,4.32
2022-10-13T13:13:31.663Z,4.50
2022-10-13T13:16:18.805Z,4.28
2022-10-13T13:18:53.166Z,3.15
2022-10-13T13:21:26.651Z,3.30
2022-10-13T13:24:01.257Z,2.83
2022-10-13T13:26:34.164Z,2.72
2022-10-13T13:29:07.175Z,2.38
2022-10-13T13:34:14.066Z,2.07
2022-10-13T13:36:49.421Z,2.08
2022-10-13T13:39:22.610Z,2.00
2022-10-13T13:41:56.756Z,2.15
2022-10-13T13:44:31.895Z,2.08
2022-10-13T13:47:05.169Z,1.60
2022-10-13T13:49:40.084Z,2.00
2022-10-13T13:52:13.285Z,2.00
2022-10-13T13:54:46.903Z,1.90
2022-10-13T13:57:20.977Z,1.70
2022-10-13T13:59:54.230Z,2.08
2022-10-13T14:02:27.062Z,1.83
2022-10-13T14:05:01.488Z,1.65
2022-10-13T14:07:35.601Z,2.35
2022-10-13T14:10:10.606Z,1.70
2022-10-13T14:12:43.369Z,1.23
2022-10-13T14:15:16.256Z,1.20
2022-10-13T14:17:49.043Z,1.52
2022-10-13T14:20:23.442Z,1.20
2022-10-13T14:22:56.153Z,1.20
2022-10-13T14:25:28.990Z,1.25
2022-10-13T14:28:01.818Z,1.67
2022-10-13T14:30:34.791Z,1.20
2022-10-13T14:35:41.551Z,1.10
2022-10-13T14:38:16.017Z,0.98
2022-10-13T14:40:50.258Z,1.17
2022-10-13T14:43:22.974Z,0.95
2022-10-13T14:45:56.394Z,1.35
2022-10-13T14:48:31.844Z,0.88
2022-10-13T14:51:06.998Z,1.15
2022-10-13T14:53:42.041Z,1.05
2022-10-13T14:56:20.262Z,1.20
2022-10-13T14:58:59.410Z,1.58
2022-10-13T15:01:39.273Z,1.08
2022-10-13T15:04:12.476Z,1.20
2022-10-13T15:06:46.657Z,1.40
2022-10-13T15:09:21.059Z,0.95
2022-10-13T15:11:58.521Z,0.98
2022-10-13T15:14:31.605Z,0.77
2022-10-13T15:17:06.017Z,1.10
2022-10-13T15:19:38.764Z,0.98
2022-10-13T15:22:13.627Z,1.00
2022-10-13T15:24:46.640Z,1.10
2022-10-13T15:27:19.831Z,0.90
2022-10-13T15:32:25.414Z,1.02
2022-10-13T15:35:04.227Z,1.25
2022-10-13T15:37:43.713Z,1.23
2022-10-13T15:40:17.173Z,1.30
2022-10-13T15:42:50.077Z,3.22
2022-10-13T15:45:22.780Z,0.93
2022-10-13T15:47:57.596Z,1.00
2022-10-13T15:50:30.544Z,1.13
2022-10-13T15:53:04.939Z,1.00
2022-10-13T15:55:37.673Z,1.00
2022-10-13T15:58:13.727Z,0.82
2022-10-13T16:00:46.747Z,1.00
2022-10-13T16:03:19.824Z,1.02
2022-10-13T16:05:52.730Z,0.85
2022-10-13T16:08:27.008Z,1.00
2022-10-13T16:10:59.639Z,0.90
2022-10-13T16:13:32.407Z,1.13
2022-10-13T16:16:05.309Z,1.50
2022-10-13T16:18:40.268Z,0.95
2022-10-13T16:21:18.489Z,1.00
2022-10-13T16:23:53.727Z,1.00
2022-10-13T16:26:28.170Z,1.13
2022-10-13T16:29:00.947Z,0.77
2022-10-13T16:31:34.160Z,0.80
2022-10-13T16:34:07.981Z,1.27
2022-10-13T16:36:40.956Z,0.90
2022-10-13T16:41:47.823Z,1.00
2022-10-13T16:44:21.801Z,1.00
2022-10-13T16:46:56.817Z,1.15
2022-10-13T16:49:29.847Z,0.95
2022-10-13T16:52:02.704Z,1.00
2022-10-13T16:54:37.215Z,1.25
2022-10-13T16:57:10.259Z,1.40
2022-10-13T16:59:43.219Z,0.90
2022-10-13T17:02:15.948Z,0.77
2022-10-13T17:04:51.070Z,0.95
2022-10-13T17:07:24.056Z,0.68
2022-10-13T17:12:31.268Z,1.00
2022-10-13T17:17:37.736Z,0.95
2022-10-13T17:20:14.109Z,0.98
2022-10-13T17:22:46.837Z,0.95
2022-10-13T17:27:54.169Z,0.90
2022-10-13T17:30:26.993Z,1.10
2022-10-13T17:33:04.160Z,0.90
2022-10-13T17:35:37.562Z,0.90
2022-10-13T17:38:10.511Z,1.30
2022-10-13T17:40:44.730Z,0.98
2022-10-13T17:43:17.769Z,1.00
2022-10-13T17:45:50.583Z,0.60
2022-10-13T17:48:23.387Z,1.08
2022-10-13T17:50:56.418Z,0.90
2022-10-13T17:53:29.144Z,0.68
2022-10-13T17:56:03.928Z,1.17
2022-10-13T17:58:38.183Z,0.85
2022-10-13T18:01:13.994Z,1.00
2022-10-13T18:03:47.433Z,0.90
2022-10-13T18:06:21.993Z,1.20
2022-10-13T18:09:12.724Z,0.90
2022-10-13T18:12:12.128Z,1.15
2022-10-13T18:14:45.147Z,0.90
2022-10-13T18:17:18.322Z,1.02
2022-10-13T18:19:53.904Z,1.20
2022-10-13T18:22:28.549Z,0.98
2022-10-13T18:25:03.714Z,1.00
2022-10-13T18:27:37.918Z,0.80
2022-10-13T18:30:11.852Z,1.17
2022-10-13T18:32:45.046Z,1.00
2022-10-13T18:35:18.376Z,1.05
2022-10-13T18:37:52.308Z,0.85
2022-10-13T18:40:26.155Z,0.95
2022-10-13T18:43:00.190Z,0.98
2022-10-13T18:45:36.148Z,0.93
2022-10-13T18:48:09.526Z,1.25
2022-10-13T18:50:42.846Z,1.20
2022-10-13T18:53:15.528Z,0.90
2022-10-13T18:55:48.342Z,1.10
2022-10-13T18:58:22.817Z,1.10
2022-10-13T19:01:00.089Z,1.15
2022-10-13T19:03:33.902Z,1.20
2022-10-13T19:06:08.973Z,1.30
2022-10-13T19:08:44.049Z,1.27
2022-10-13T19:11:19.029Z,1.10
2022-10-13T19:13:54.216Z,1.10
2022-10-13T19:16:29.013Z,1.30
2022-10-13T19:19:02.131Z,1.20
2022-10-13T19:21:34.797Z,1.20
2022-10-13T19:24:08.735Z,1.20
2022-10-13T19:26:42.049Z,1.33
2022-10-13T19:29:16.200Z,1.73
2022-10-13T19:31:49.150Z,1.48
2022-10-13T19:34:22.930Z,1.52
2022-10-13T19:36:59.340Z,1.88
2022-10-13T19:39:32.500Z,1.83
2022-10-13T19:42:05.344Z,2.00
2022-10-13T19:44:39.434Z,2.08
2022-10-13T19:47:12.117Z,2.20
2022-10-13T19:49:44.798Z,1.88
2022-10-13T19:52:17.505Z,1.95
2022-10-13T19:55:07.876Z,2.42
2022-10-13T19:57:40.573Z,2.35
2022-10-13T20:00:20.124Z,2.30
2022-10-13T20:02:53.380Z,2.10
2022-10-13T20:05:26.163Z,2.33
2022-10-13T20:07:59.839Z,2.35
2022-10-13T20:10:32.755Z,2.47
2022-10-13T20:13:06.111Z,2.58
2022-10-13T20:18:14.182Z,3.65
2022-10-13T20:23:19.741Z,2.80
2022-10-13T20:25:52.479Z,3.28
2022-10-13T20:28:25.248Z,3.45
2022-10-13T20:33:35.536Z,3.60
2022-10-13T20:36:10.745Z,3.83
2022-10-13T20:38:43.657Z,4.45
2022-10-13T20:41:19.675Z,4.50
2022-10-13T20:43:53.537Z,4.40
2022-10-13T20:46:28.398Z,4.00
2022-10-13T20:49:16.580Z,4.47
2022-10-13T20:51:49.592Z,4.22
2022-10-13T20:54:22.579Z,4.60
2022-10-13T20:56:55.518Z,4.82
2022-10-13T20:59:28.676Z,4.50
2022-10-13T21:02:03.426Z,4.53
2022-10-13T21:04:36.295Z,4.75
2022-10-13T21:07:09.528Z,3.75
2022-10-13T21:09:42.362Z,4.32
2022-10-13T21:12:15.259Z,4.25
2022-10-13T21:14:48.496Z,3.92
2022-10-13T21:19:56.666Z,4.80
2022-10-13T21:25:06.670Z,4.05
2022-10-13T21:27:39.559Z,4.15
2022-10-13T21:30:13.446Z,4.25
2022-10-13T21:32:47.930Z,4.00
2022-10-13T21:35:21.017Z,4.28
2022-10-13T21:40:26.657Z,4.25
2022-10-13T21:45:32.088Z,4.60
2022-10-13T21:48:07.011Z,4.25
2022-10-13T21:50:39.820Z,4.32
2022-10-13T21:53:12.820Z,3.95
2022-10-13T21:58:18.351Z,3.88
2022-10-13T22:00:51.168Z,3.85
2022-10-13T22:03:26.618Z,3.90
2022-10-13T22:05:59.429Z,4.07
2022-10-13T22:08:38.278Z,3.13
2022-10-13T22:11:20.930Z,4.07
2022-10-13T22:13:54.516Z,3.65
2022-10-13T22:16:30.607Z,4.32
2022-10-13T22:19:05.562Z,4.07
2022-10-13T22:21:41.434Z,4.05
2022-10-13T22:24:16.448Z,3.78
2022-10-13T22:26:50.812Z,3.65
2022-10-13T22:29:24.816Z,4.05
2022-10-13T22:32:19.002Z,4.00
2022-10-13T22:34:53.220Z,3.40
2022-10-13T22:37:26.098Z,3.75
2022-10-13T22:39:58.989Z,4.30
2022-10-13T22:42:31.669Z,3.67
2022-10-13T22:45:04.962Z,3.80
2022-10-13T22:47:38.888Z,4.10
2022-10-13T22:50:12.993Z,3.80
2022-10-13T22:52:45.956Z,3.90
2022-10-13T22:55:19.033Z,3.53
2022-10-13T22:57:52.458Z,3.45
2022-10-13T23:00:25.435Z,4.20
2022-10-13T23:02:58.746Z,4.07
2022-10-13T23:05:33.802Z,3.90
2022-10-13T23:08:06.737Z,4.45
2022-10-13T23:10:40.026Z,3.92
2022-10-13T23:13:12.954Z,3.08
2022-10-13T23:15:46.116Z,4.15
2022-10-13T23:18:19.161Z,3.42
2022-10-13T23:20:56.628Z,3.40
2022-10-13T23:23:31.846Z,4.03
2022-10-13T23:26:05.951Z,4.18
2022-10-13T23:28:39.351Z,3.80
2022-10-13T23:31:15.071Z,3.90
2022-10-13T23:33:48.426Z,3.63
2022-10-13T23:36:24.581Z,3.72
2022-10-13T23:39:01.237Z,3.63
2022-10-13T23:41:34.778Z,3.95
2022-10-13T23:44:07.555Z,4.20
2022-10-13T23:46:40.440Z,3.95
2022-10-13T23:49:15.854Z,4.20
2022-10-13T23:51:50.001Z,3.65
2022-10-13T23:54:22.884Z,3.90
2022-10-13T23:56:55.684Z,3.58
2022-10-13T23:59:28.542Z,3.63
